Time;durP1;ratioP1;P1;durP2;ratioP2;P2;SDS_P1;SDS_P2;PMS_P1;PMS_P2;Temp;Humidity;BMP_temperature;BMP_pressure;BME280_temperature;BME280_humidity;BME280_pressure;Samples;Min_cycle;Max_cycle;Signal;HPM_P1;HPM_P2
2023/08/14 00:01:55;;;;;;;4.50;3.03;;;28.20;64.60;;;;;;5014241;28;20197;-48
2023/08/14 00:04:21;;;;;;;4.60;3.33;;;28.20;64.60;;;;;;5020590;28;20215;-52
2023/08/14 00:06:46;;;;;;;3.90;3.60;;;28.20;64.50;;;;;;5030699;28;20229;-49
2023/08/14 00:09:12;;;;;;;3.07;2.77;;;28.20;64.40;;;;;;5026060;28;20247;-49
2023/08/14 00:11:37;;;;;;;6.30;3.77;;;28.20;64.60;;;;;;5019281;28;20212;-49
2023/08/14 00:14:04;;;;;;;4.27;3.93;;;28.20;64.30;;;;;;5026885;28;20197;-50
2023/08/14 00:16:29;;;;;;;4.90;4.00;;;28.20;64.30;;;;;;5025527;28;20200;-48
2023/08/14 00:18:55;;;;;;;3.63;3.33;;;28.10;64.40;;;;;;5025186;28;20452;-48
2023/08/14 00:21:21;;;;;;;5.90;4.20;;;28.10;64.90;;;;;;5030606;28;20193;-49
2023/08/14 00:23:47;;;;;;;4.17;2.93;;;28.10;64.90;;;;;;5031790;28;20287;-49
2023/08/14 00:26:12;;;;;;;5.50;3.43;;;28.10;64.70;;;;;;5024136;28;20531;-52
2023/08/14 00:28:38;;;;;;;4.23;3.43;;;28.10;64.50;;;;;;5019406;28;20220;-48
2023/08/14 00:31:04;;;;;;;3.80;3.40;;;28.20;64.10;;;;;;5022170;28;20212;-48
2023/08/14 00:33:30;;;;;;;4.30;3.90;;;28.20;63.80;;;;;;5019637;28;20228;-49
2023/08/14 00:35:55;;;;;;;3.40;3.10;;;28.20;63.80;;;;;;5025127;28;20199;-49
2023/08/14 00:38:21;;;;;;;4.57;3.70;;;28.20;63.70;;;;;;5020662;28;20623;-49
2023/08/14 00:40:46;;;;;;;5.30;4.13;;;28.30;63.70;;;;;;5020082;28;21062;-49
2023/08/14 00:43:12;;;;;;;4.67;3.30;;;28.30;63.80;;;;;;5022159;28;20208;-52
2023/08/14 00:45:38;;;;;;;5.97;3.17;;;28.30;63.80;;;;;;5018320;28;20201;-49
2023/08/14 00:48:05;;;;;;;4.90;4.13;;;28.20;63.60;;;;;;5022477;28;20605;-49
2023/08/14 00:50:31;;;;;;;7.50;4.07;;;28.30;63.40;;;;;;5022691;28;22563;-51
2023/08/14 00:53:00;;;;;;;3.80;3.47;;;28.30;63.40;;;;;;5020053;28;20440;-50
2023/08/14 00:55:26;;;;;;;4.33;3.97;;;28.20;63.60;;;;;;5025646;28;20189;-50
2023/08/14 00:57:53;;;;;;;4.50;4.20;;;28.30;63.70;;;;;;5034266;28;20442;-48
2023/08/14 01:00:19;;;;;;;4.40;4.00;;;28.20;63.70;;;;;;5035037;28;20566;-49
2023/08/14 01:02:46;;;;;;;3.80;3.40;;;28.20;63.70;;;;;;5034281;28;20443;-49
2023/08/14 01:05:12;;;;;;;3.53;3.17;;;28.20;63.90;;;;;;5034934;28;20272;-48
2023/08/14 01:07:38;;;;;;;3.47;3.17;;;28.20;63.80;;;;;;5032221;28;20526;-50
2023/08/14 01:10:06;;;;;;;3.90;3.37;;;28.20;63.80;;;;;;5031652;28;20244;-52
2023/08/14 01:12:52;;;;;;;4.73;3.90;;;28.20;63.60;;;;;;5031844;28;20435;-51
2023/08/14 01:15:42;;;;;;;4.33;4.00;;;28.20;63.50;;;;;;5026634;28;20432;-48
2023/08/14 01:18:11;;;;;;;8.30;4.00;;;28.20;63.60;;;;;;5033219;28;20458;-49
2023/08/14 01:20:38;;;;;;;4.70;4.20;;;28.10;63.90;;;;;;5033878;28;20447;-50
2023/08/14 01:23:36;;;;;;;4.70;3.70;;;28.00;64.30;;;;;;5033485;28;20440;-50
2023/08/14 01:26:02;;;;;;;4.33;3.97;;;27.90;64.70;;;;;;5031260;28;20431;-51
2023/08/14 01:28:28;;;;;;;4.17;3.87;;;27.80;65.30;;;;;;5030998;28;20903;-52
2023/08/14 01:30:54;;;;;;;4.77;3.67;;;27.70;66.00;;;;;;5033476;28;20829;-48
2023/08/14 01:33:20;;;;;;;3.93;3.57;;;27.70;66.30;;;;;;5023251;28;20439;-49
2023/08/14 01:35:51;;;;;;;5.60;3.87;;;27.70;66.10;;;;;;5021960;28;20225;-48
2023/08/14 01:38:30;;;;;;;4.47;3.80;;;27.80;66.10;;;;;;5025112;28;20252;-49
2023/08/14 01:41:11;;;;;;;4.40;3.90;;;27.80;66.30;;;;;;5021519;28;21035;-49
2023/08/14 01:43:49;;;;;;;4.70;3.87;;;27.70;66.20;;;;;;5022755;28;20455;-49
2023/08/14 01:46:16;;;;;;;4.10;3.80;;;27.70;66.60;;;;;;5022394;28;20734;-49
2023/08/14 01:48:45;;;;;;;4.40;4.00;;;27.70;66.60;;;;;;5023007;28;20989;-49
2023/08/14 01:51:11;;;;;;;5.40;4.00;;;27.60;66.40;;;;;;5024933;28;20447;-51
2023/08/14 01:53:37;;;;;;;5.57;3.53;;;27.20;68.50;;;;;;5024431;28;20982;-51
2023/08/14 01:56:02;;;;;;;6.00;4.47;;;27.00;69.60;;;;;;5021202;28;20447;-48
2023/08/14 01:58:29;;;;;;;3.77;3.47;;;27.00;70.00;;;;;;5020998;28;20198;-47
2023/08/14 02:00:55;;;;;;;4.73;4.27;;;27.10;69.80;;;;;;5028196;28;20555;-48
2023/08/14 02:03:20;;;;;;;4.77;4.23;;;27.10;70.10;;;;;;5027553;28;20444;-50
2023/08/14 02:05:46;;;;;;;5.93;4.50;;;27.10;70.60;;;;;;5020360;28;20208;-48
2023/08/14 02:08:11;;;;;;;5.63;4.60;;;27.00;70.90;;;;;;5021822;28;20236;-52
2023/08/14 02:10:37;;;;;;;5.23;4.70;;;26.80;72.40;;;;;;5027372;28;20224;-49
2023/08/14 02:13:03;;;;;;;7.93;5.57;;;26.90;72.20;;;;;;5030498;28;20244;-50
2023/08/14 02:15:28;;;;;;;5.53;4.80;;;26.90;72.40;;;;;;5032461;28;20695;-51
2023/08/14 02:17:54;;;;;;;5.33;4.93;;;26.80;72.40;;;;;;5032457;28;20190;-47
2023/08/14 02:20:19;;;;;;;5.07;4.57;;;26.70;72.60;;;;;;5030144;28;20194;-50
2023/08/14 02:22:46;;;;;;;6.10;4.50;;;26.20;73.90;;;;;;5029988;28;20264;-48
2023/08/14 02:25:11;;;;;;;5.20;4.63;;;25.80;76.20;;;;;;5026746;28;20566;-49
2023/08/14 02:27:37;;;;;;;9.20;4.33;;;25.90;76.40;;;;;;5028837;28;20452;-47
2023/08/14 02:30:03;;;;;;;4.50;4.20;;;25.90;75.30;;;;;;5022364;28;20685;-48
2023/08/14 02:32:28;;;;;;;6.53;4.27;;;26.00;75.00;;;;;;5024266;28;20197;-49
2023/08/14 02:34:55;;;;;;;5.60;3.23;;;26.00;74.40;;;;;;5028793;28;20436;-51
2023/08/14 02:37:21;;;;;;;5.63;3.63;;;25.90;73.00;;;;;;5024119;28;20626;-46
2023/08/14 02:39:47;;;;;;;4.77;3.53;;;25.90;73.80;;;;;;5030021;28;20463;-51
2023/08/14 02:42:16;;;;;;;5.63;3.20;;;26.00;73.70;;;;;;5027597;28;20189;-48
2023/08/14 02:44:41;;;;;;;4.03;3.00;;;26.10;72.60;;;;;;5027303;28;20456;-46
2023/08/14 02:47:07;;;;;;;4.53;2.57;;;25.90;72.40;;;;;;5022233;28;20436;-48
2023/08/14 02:49:33;;;;;;;3.37;2.40;;;26.00;72.40;;;;;;5022562;28;20588;-47
2023/08/14 02:51:59;;;;;;;4.30;2.83;;;25.80;72.70;;;;;;5023064;28;20197;-47
2023/08/14 02:54:25;;;;;;;4.20;2.47;;;25.60;74.10;;;;;;5026734;28;20201;-50
2023/08/14 02:56:51;;;;;;;2.80;2.40;;;25.40;76.20;;;;;;5027809;28;20523;-47
2023/08/14 02:59:16;;;;;;;3.47;3.17;;;25.00;77.70;;;;;;5031843;28;20483;-47
2023/08/14 03:01:43;;;;;;;3.03;2.83;;;24.70;79.20;;;;;;5029096;28;20263;-51
2023/08/14 03:04:08;;;;;;;6.03;3.77;;;24.20;83.30;;;;;;5030147;28;20273;-50
2023/08/14 03:06:34;;;;;;;3.63;3.33;;;23.80;87.60;;;;;;5031632;28;20546;-46
2023/08/14 03:09:00;;;;;;;8.37;4.40;;;23.70;89.70;;;;;;5021620;28;20236;-46
2023/08/14 03:11:26;;;;;;;5.37;3.77;;;23.90;88.20;;;;;;5030733;28;20197;-47
2023/08/14 03:13:52;;;;;;;4.80;3.80;;;24.20;86.10;;;;;;5030857;28;20440;-47
2023/08/14 03:16:18;;;;;;;3.60;3.30;;;24.10;85.90;;;;;;5026122;28;21012;-46
2023/08/14 03:18:44;;;;;;;6.57;3.93;;;24.10;85.10;;;;;;5028666;28;20193;-46
2023/08/14 03:21:10;;;;;;;8.20;3.47;;;24.50;83.70;;;;;;5031553;28;20189;-51
2023/08/14 03:23:36;;;;;;;15.63;3.77;;;24.70;81.80;;;;;;5031866;28;20201;-46
2023/08/14 03:26:05;;;;;;;4.63;3.80;;;24.70;82.20;;;;;;5032288;28;20193;-47
2023/08/14 03:28:31;;;;;;;3.83;3.17;;;24.90;81.10;;;;;;5024908;28;20539;-51
2023/08/14 03:30:56;;;;;;;3.40;3.10;;;25.10;79.70;;;;;;5022890;28;20442;-47
2023/08/14 03:33:22;;;;;;;5.27;4.00;;;25.20;78.30;;;;;;5023896;28;20195;-49
2023/08/14 03:35:47;;;;;;;5.40;4.87;;;25.40;77.80;;;;;;5022319;28;20193;-46
2023/08/14 03:38:13;;;;;;;6.87;2.90;;;25.50;77.10;;;;;;5023236;28;20189;-48
2023/08/14 03:40:39;;;;;;;4.23;3.83;;;25.50;77.20;;;;;;5024686;28;20216;-47
2023/08/14 03:43:04;;;;;;;3.93;3.30;;;25.50;77.40;;;;;;5022745;28;20671;-46
2023/08/14 03:45:30;;;;;;;3.50;3.20;;;25.40;77.40;;;;;;5023816;28;20205;-46
2023/08/14 03:47:56;;;;;;;4.57;3.77;;;25.10;78.80;;;;;;5020810;28;20232;-47
2023/08/14 03:50:22;;;;;;;5.53;3.63;;;24.80;81.20;;;;;;5027011;28;20659;-46
2023/08/14 03:52:50;;;;;;;4.70;4.30;;;24.60;82.30;;;;;;5025171;28;20212;-47
2023/08/14 03:55:16;;;;;;;4.97;3.90;;;24.70;82.10;;;;;;5020575;28;20472;-50
2023/08/14 03:57:41;;;;;;;4.97;3.60;;;24.80;80.50;;;;;;5027365;28;20973;-46
2023/08/14 04:00:08;;;;;;;4.40;4.00;;;24.70;81.30;;;;;;5020050;28;20268;-46
2023/08/14 04:02:33;;;;;;;4.60;3.90;;;24.70;81.00;;;;;;5026384;28;20208;-46
2023/08/14 04:04:59;;;;;;;4.87;3.90;;;24.60;81.50;;;;;;5027604;28;20437;-46
2023/08/14 04:07:24;;;;;;;4.77;4.37;;;24.70;81.40;;;;;;5019300;28;20573;-50
2023/08/14 04:09:50;;;;;;;5.17;4.27;;;24.80;81.40;;;;;;5030438;28;20228;-46
2023/08/14 04:12:15;;;;;;;6.80;4.70;;;24.80;80.90;;;;;;5028388;28;20197;-46
2023/08/14 04:14:41;;;;;;;5.40;4.50;;;25.00;80.40;;;;;;5027891;28;20188;-47
2023/08/14 04:17:07;;;;;;;4.67;4.27;;;25.10;80.00;;;;;;5023950;28;20197;-51
2023/08/14 04:19:32;;;;;;;6.20;5.23;;;25.20;79.50;;;;;;5025871;28;20244;-46
2023/08/14 04:21:58;;;;;;;7.53;4.87;;;25.20;79.00;;;;;;5026073;28;20205;-47
2023/08/14 04:24:23;;;;;;;5.70;5.03;;;25.30;78.60;;;;;;5030190;28;20680;-46
2023/08/14 04:26:49;;;;;;;12.27;5.07;;;25.20;78.60;;;;;;5022719;28;20189;-50
2023/08/14 04:29:16;;;;;;;5.03;4.53;;;25.20;78.50;;;;;;5022514;28;20286;-49
2023/08/14 04:31:41;;;;;;;6.00;4.67;;;25.30;78.40;;;;;;5021408;28;20236;-46
2023/08/14 04:34:09;;;;;;;5.63;5.13;;;25.30;78.00;;;;;;5021375;28;20483;-46
2023/08/14 04:36:35;;;;;;;9.10;5.20;;;25.40;77.70;;;;;;5022729;28;20205;-52
2023/08/14 04:39:03;;;;;;;5.50;4.63;;;25.30;77.50;;;;;;5028044;28;20852;-46
2023/08/14 04:41:29;;;;;;;5.20;4.70;;;25.40;78.00;;;;;;5030211;28;20444;-49
2023/08/14 04:43:55;;;;;;;9.43;5.33;;;25.40;77.70;;;;;;5030768;28;20582;-50
2023/08/14 04:46:32;;;;;;;6.27;4.53;;;25.40;77.60;;;;;;5029803;28;20189;-46
2023/08/14 04:48:59;;;;;;;8.13;5.03;;;25.40;77.10;;;;;;5023559;28;20229;-51
2023/08/14 04:51:25;;;;;;;5.90;5.23;;;25.40;76.50;;;;;;5021632;28;20483;-47
2023/08/14 04:53:51;;;;;;;6.73;4.77;;;25.20;77.10;;;;;;5025786;28;20931;-48
2023/08/14 04:56:16;;;;;;;5.10;4.63;;;25.10;78.20;;;;;;5029440;28;20451;-46
2023/08/14 04:58:43;;;;;;;5.23;4.83;;;25.20;78.40;;;;;;5032115;28;20204;-47
2023/08/14 05:01:09;;;;;;;5.70;5.30;;;25.30;78.10;;;;;;5024932;28;20636;-47
2023/08/14 05:03:34;;;;;;;5.67;5.10;;;25.30;77.60;;;;;;5022102;28;20432;-46
2023/08/14 05:06:00;;;;;;;5.60;5.17;;;25.40;77.40;;;;;;5031248;28;20282;-52
2023/08/14 05:08:25;;;;;;;5.67;4.63;;;25.40;77.20;;;;;;5031686;28;20237;-49
2023/08/14 05:10:52;;;;;;;6.03;4.70;;;25.40;77.20;;;;;;5031055;28;20197;-48
2023/08/14 05:13:18;;;;;;;6.03;5.30;;;25.40;77.20;;;;;;5031393;28;20271;-50
2023/08/14 05:15:46;;;;;;;4.13;3.60;;;25.40;77.20;;;;;;5030976;28;20436;-47
2023/08/14 05:18:12;;;;;;;4.20;3.70;;;25.40;77.80;;;;;;5030291;28;20420;-53
2023/08/14 05:20:37;;;;;;;5.00;3.30;;;25.40;78.10;;;;;;5027757;28;20543;-52
2023/08/14 05:23:03;;;;;;;9.83;6.17;;;25.60;78.20;;;;;;5030170;28;20194;-50
2023/08/14 05:25:29;;;;;;;7.83;4.00;;;25.60;76.00;;;;;;5030219;28;20189;-51
2023/08/14 05:27:54;;;;;;;6.93;4.40;;;25.70;76.60;;;;;;5031368;28;20185;-48
2023/08/14 05:30:20;;;;;;;5.90;4.60;;;25.90;76.00;;;;;;5024430;28;20225;-48
2023/08/14 05:32:47;;;;;;;7.57;5.13;;;26.00;73.80;;;;;;5017109;28;20197;-50
2023/08/14 05:35:13;;;;;;;7.67;5.00;;;26.00;74.00;;;;;;5021629;28;20240;-48
2023/08/14 05:37:40;;;;;;;5.40;4.87;;;26.20;73.70;;;;;;5018087;28;20443;-55
2023/08/14 05:40:06;;;;;;;4.70;4.03;;;26.10;73.40;;;;;;5026521;28;20239;-48
2023/08/14 05:42:33;;;;;;;10.30;4.50;;;26.00;74.30;;;;;;5027331;28;20479;-49
2023/08/14 05:44:58;;;;;;;11.43;5.60;;;26.20;74.00;;;;;;5028500;28;20498;-48
2023/08/14 05:47:24;;;;;;;4.90;4.40;;;26.30;72.90;;;;;;5032638;28;20201;-51
2023/08/14 05:49:49;;;;;;;5.50;4.10;;;26.10;73.50;;;;;;5031797;28;20229;-48
2023/08/14 05:52:15;;;;;;;4.60;4.20;;;26.30;73.80;;;;;;5028225;28;20674;-51
2023/08/14 05:54:41;;;;;;;5.80;4.10;;;26.50;73.20;;;;;;5028489;28;20196;-51
2023/08/14 05:57:06;;;;;;;5.67;4.10;;;26.70;72.50;;;;;;5027587;28;20219;-51
2023/08/14 05:59:32;;;;;;;3.77;3.47;;;26.80;71.80;;;;;;5034512;28;20209;-48
2023/08/14 06:01:58;;;;;;;4.40;4.00;;;26.80;71.80;;;;;;5029675;28;20268;-48
2023/08/14 06:04:25;;;;;;;4.40;4.10;;;26.90;71.40;;;;;;5031292;28;20880;-49
2023/08/14 06:06:51;;;;;;;4.23;3.93;;;27.00;71.50;;;;;;5027602;28;20641;-49
2023/08/14 06:09:17;;;;;;;4.70;3.97;;;26.80;71.70;;;;;;5033408;28;20487;-48
2023/08/14 06:11:43;;;;;;;4.80;4.40;;;26.60;73.60;;;;;;5031173;28;20204;-51
2023/08/14 06:14:09;;;;;;;4.60;4.23;;;26.30;74.90;;;;;;5031777;28;20943;-47
2023/08/14 06:16:34;;;;;;;3.90;3.60;;;26.20;76.00;;;;;;5025275;28;20189;-49
2023/08/14 06:19:00;;;;;;;4.17;3.87;;;26.50;75.10;;;;;;5031809;28;20205;-47
2023/08/14 06:21:25;;;;;;;5.00;4.50;;;26.70;73.80;;;;;;5028147;28;20201;-48
2023/08/14 06:23:51;;;;;;;5.13;4.60;;;26.80;73.20;;;;;;5031811;28;20246;-46
2023/08/14 06:26:16;;;;;;;5.03;4.70;;;26.80;73.70;;;;;;5025661;28;20193;-47
2023/08/14 06:28:42;;;;;;;7.97;4.80;;;26.80;72.80;;;;;;5029705;28;20193;-49
2023/08/14 06:31:09;;;;;;;5.60;3.83;;;26.80;73.40;;;;;;5033707;28;20193;-48
2023/08/14 06:33:34;;;;;;;4.20;3.90;;;26.70;73.00;;;;;;5033665;28;20569;-51
2023/08/14 06:36:00;;;;;;;5.67;4.17;;;26.60;74.00;;;;;;5033716;28;20432;-50
2023/08/14 06:38:25;;;;;;;4.67;4.27;;;26.40;75.30;;;;;;5032667;28;21556;-49
2023/08/14 06:40:51;;;;;;;4.53;4.20;;;26.30;75.40;;;;;;5030028;28;20204;-47
2023/08/14 06:43:16;;;;;;;4.50;4.10;;;26.20;76.40;;;;;;5021929;28;20215;-52
2023/08/14 06:45:42;;;;;;;4.53;4.10;;;26.30;76.20;;;;;;5033808;28;20255;-49
2023/08/14 06:48:08;;;;;;;8.53;5.30;;;26.30;76.40;;;;;;5032273;28;20281;-51
2023/08/14 06:50:33;;;;;;;4.80;4.40;;;26.30;76.50;;;;;;5030456;28;20291;-48
2023/08/14 06:52:59;;;;;;;5.10;4.60;;;26.30;76.70;;;;;;5033528;28;20645;-51
2023/08/14 06:55:24;;;;;;;4.40;4.03;;;26.30;76.30;;;;;;5032690;28;20636;-51
2023/08/14 06:57:50;;;;;;;4.47;3.73;;;26.10;78.50;;;;;;5032745;28;20284;-51
2023/08/14 07:00:16;;;;;;;4.63;4.23;;;26.20;78.20;;;;;;5026035;28;20251;-47
2023/08/14 07:02:45;;;;;;;4.20;3.90;;;26.40;76.90;;;;;;5031222;28;20280;-51
2023/08/14 07:05:11;;;;;;;4.37;4.00;;;26.60;76.50;;;;;;5029605;28;20510;-49
2023/08/14 07:07:36;;;;;;;4.60;4.20;;;26.80;76.80;;;;;;5032665;28;20515;-49
2023/08/14 07:10:02;;;;;;;4.47;4.07;;;26.90;75.40;;;;;;5033273;28;20507;-48
2023/08/14 07:12:28;;;;;;;4.53;4.13;;;26.90;74.40;;;;;;5033019;28;20193;-50
2023/08/14 07:14:53;;;;;;;5.57;4.27;;;26.90;75.20;;;;;;5032869;28;20197;-47
2023/08/14 07:17:19;;;;;;;4.20;3.70;;;27.10;74.80;;;;;;5030644;28;20193;-47
2023/08/14 07:19:45;;;;;;;6.53;4.40;;;27.40;75.60;;;;;;5032199;28;20235;-50
2023/08/14 07:22:10;;;;;;;4.37;3.97;;;27.60;76.10;;;;;;5030836;28;20217;-49
2023/08/14 07:24:36;;;;;;;4.77;4.30;;;27.70;72.70;;;;;;5022815;28;20197;-50
2023/08/14 07:27:02;;;;;;;4.27;3.97;;;27.80;72.50;;;;;;5026627;28;20566;-48
2023/08/14 07:29:27;;;;;;;4.03;3.70;;;28.00;72.20;;;;;;5029620;28;20233;-49
2023/08/14 07:31:53;;;;;;;4.37;4.07;;;28.20;69.80;;;;;;5031600;28;20632;-49
2023/08/14 07:34:18;;;;;;;3.50;3.20;;;28.30;72.30;;;;;;5033278;28;20193;-50
2023/08/14 07:36:44;;;;;;;4.50;3.97;;;28.30;69.00;;;;;;5031023;28;20186;-48
2023/08/14 07:39:10;;;;;;;6.63;3.90;;;28.40;70.60;;;;;;5025934;28;20640;-54
2023/08/14 07:41:35;;;;;;;5.10;3.80;;;28.60;70.50;;;;;;5029056;28;20283;-48
2023/08/14 07:44:01;;;;;;;3.53;3.23;;;28.90;70.00;;;;;;5031065;28;20342;-46
2023/08/14 07:46:26;;;;;;;3.83;3.20;;;29.10;68.60;;;;;;5030817;28;20202;-48
2023/08/14 07:48:52;;;;;;;3.97;3.60;;;29.00;65.50;;;;;;5030976;28;20221;-50
2023/08/14 07:51:19;;;;;;;3.77;3.47;;;29.10;66.20;;;;;;5024347;28;20637;-50
2023/08/14 07:53:45;;;;;;;3.63;3.33;;;29.20;67.00;;;;;;5025231;28;20192;-49
2023/08/14 07:56:10;;;;;;;4.47;4.07;;;29.50;66.20;;;;;;5019979;28;20444;-52
2023/08/14 07:58:37;;;;;;;3.93;3.63;;;29.60;64.30;;;;;;5024433;28;20248;-52
2023/08/14 08:01:02;;;;;;;3.77;3.47;;;29.90;65.30;;;;;;5030101;28;20204;-52
2023/08/14 08:03:28;;;;;;;4.53;4.13;;;30.00;62.50;;;;;;5028681;28;20444;-51
2023/08/14 08:05:53;;;;;;;4.00;3.70;;;30.00;60.60;;;;;;5029958;28;20194;-52
2023/08/14 08:08:19;;;;;;;4.40;4.10;;;29.90;61.80;;;;;;5021232;28;20718;-51
2023/08/14 08:10:45;;;;;;;3.40;3.20;;;29.90;61.80;;;;;;5024987;28;20590;-53
2023/08/14 08:13:10;;;;;;;3.10;2.90;;;30.10;60.90;;;;;;5024148;28;20272;-51
2023/08/14 08:15:36;;;;;;;6.53;4.07;;;30.10;60.10;;;;;;5031348;28;20320;-52
2023/08/14 08:18:01;;;;;;;5.23;3.37;;;30.20;58.80;;;;;;5027871;28;20221;-52
2023/08/14 08:20:27;;;;;;;4.87;3.20;;;30.30;58.30;;;;;;5028947;28;20197;-52
2023/08/14 08:22:53;;;;;;;4.83;2.90;;;30.50;59.30;;;;;;5029692;28;20197;-49
2023/08/14 08:25:19;;;;;;;5.90;3.87;;;30.60;59.60;;;;;;5022135;28;20189;-51
2023/08/14 08:27:44;;;;;;;3.60;3.30;;;30.80;59.00;;;;;;5026518;28;20224;-52
2023/08/14 08:30:10;;;;;;;4.30;3.70;;;30.90;58.00;;;;;;5027603;28;20518;-51
2023/08/14 08:32:38;;;;;;;3.77;3.30;;;31.00;57.70;;;;;;5025175;28;20225;-48
2023/08/14 08:35:04;;;;;;;3.53;3.30;;;30.60;58.20;;;;;;5021366;28;20501;-52
2023/08/14 08:37:29;;;;;;;4.03;3.60;;;30.70;58.70;;;;;;5029609;28;20448;-50
2023/08/14 08:39:55;;;;;;;3.20;3.00;;;31.00;59.50;;;;;;5028949;28;20189;-51
2023/08/14 08:42:22;;;;;;;4.17;3.33;;;31.30;58.40;;;;;;5028804;28;20197;-51
2023/08/14 08:44:50;;;;;;;3.43;3.13;;;31.50;57.90;;;;;;5030446;28;20194;-52
2023/08/14 08:47:20;;;;;;;3.60;3.30;;;31.60;57.20;;;;;;5032139;28;20425;-49
2023/08/14 08:49:46;;;;;;;3.63;3.33;;;31.70;56.80;;;;;;5031734;28;20523;-51
2023/08/14 08:52:13;;;;;;;5.50;3.20;;;31.80;57.40;;;;;;5019933;28;20982;-51
2023/08/14 08:54:39;;;;;;;3.90;3.60;;;31.90;56.50;;;;;;5030123;28;20293;-52
2023/08/14 08:57:05;;;;;;;5.00;3.70;;;31.90;57.20;;;;;;5028754;28;20447;-53
2023/08/14 08:59:32;;;;;;;3.43;3.13;;;32.00;55.50;;;;;;5030017;28;20475;-51
2023/08/14 09:01:58;;;;;;;5.13;3.20;;;31.90;56.40;;;;;;5024969;28;20206;-48
2023/08/14 09:04:23;;;;;;;3.80;3.50;;;32.00;57.00;;;;;;5030183;28;20443;-51
2023/08/14 09:06:49;;;;;;;3.27;3.07;;;32.30;56.10;;;;;;5025960;28;20215;-49
2023/08/14 09:09:15;;;;;;;3.97;3.00;;;32.40;55.70;;;;;;5030738;28;20279;-47
2023/08/14 09:11:40;;;;;;;3.83;3.53;;;32.40;55.50;;;;;;5030460;28;20189;-48
2023/08/14 09:14:07;;;;;;;3.30;3.00;;;32.50;55.00;;;;;;5029719;28;20807;-50
2023/08/14 09:16:32;;;;;;;3.60;3.30;;;32.80;55.90;;;;;;5028848;28;20217;-51
2023/08/14 09:18:59;;;;;;;3.23;3.03;;;33.00;55.30;;;;;;5034179;28;20482;-48
2023/08/14 09:21:26;;;;;;;3.80;3.57;;;33.30;53.70;;;;;;5033111;28;20196;-49
2023/08/14 09:23:52;;;;;;;4.07;3.63;;;33.50;53.30;;;;;;5032604;28;20443;-46
2023/08/14 09:26:19;;;;;;;4.87;2.80;;;33.70;53.50;;;;;;5034208;28;20447;-47
2023/08/14 09:28:45;;;;;;;3.47;3.27;;;33.90;52.70;;;;;;5030867;28;20296;-50
2023/08/14 09:31:12;;;;;;;3.23;3.03;;;33.90;51.90;;;;;;5028583;28;20526;-46
2023/08/14 09:33:42;;;;;;;3.67;3.37;;;33.90;52.40;;;;;;5031875;28;20193;-50
2023/08/14 09:36:08;;;;;;;3.60;3.30;;;34.10;52.90;;;;;;5032175;28;20524;-51
2023/08/14 09:38:34;;;;;;;3.20;3.00;;;34.30;52.70;;;;;;5028339;28;20897;-49
2023/08/14 09:41:00;;;;;;;3.80;3.33;;;34.30;50.50;;;;;;5027105;28;20554;-49
2023/08/14 09:43:28;;;;;;;3.03;2.83;;;34.50;50.70;;;;;;5028425;28;20194;-51
2023/08/14 09:45:56;;;;;;;3.50;3.30;;;34.50;50.10;;;;;;5028099;28;20418;-51
2023/08/14 09:48:38;;;;;;;6.00;3.30;;;34.70;49.80;;;;;;5031382;28;20491;-50
2023/08/14 09:51:03;;;;;;;4.40;2.90;;;34.90;50.00;;;;;;5032429;28;20487;-47
2023/08/14 09:53:29;;;;;;;5.00;3.33;;;35.20;48.10;;;;;;5034219;28;20451;-50
2023/08/14 09:55:55;;;;;;;4.50;3.03;;;35.30;48.90;;;;;;5029836;28;20198;-49
2023/08/14 09:58:21;;;;;;;2.90;2.70;;;35.50;50.10;;;;;;5033122;28;20285;-47
2023/08/14 10:00:47;;;;;;;5.07;3.90;;;35.70;49.90;;;;;;5027883;28;21022;-46
2023/08/14 10:03:13;;;;;;;4.03;3.73;;;35.90;48.30;;;;;;5023445;28;20197;-50
2023/08/14 10:05:40;;;;;;;3.37;3.17;;;36.10;48.50;;;;;;5026528;28;20708;-46
2023/08/14 10:08:07;;;;;;;3.30;3.00;;;36.20;47.30;;;;;;5022383;28;20444;-49
2023/08/14 10:10:34;;;;;;;6.40;3.87;;;36.20;46.60;;;;;;5028044;28;20513;-46
2023/08/14 10:13:04;;;;;;;3.30;3.10;;;36.40;46.50;;;;;;5025865;28;20428;-47
2023/08/14 10:15:34;;;;;;;3.57;3.27;;;36.50;47.90;;;;;;5031576;28;20448;-50
2023/08/14 10:18:14;;;;;;;4.80;3.57;;;36.60;46.20;;;;;;5033668;28;20937;-46
2023/08/14 10:20:42;;;;;;;3.93;3.20;;;36.80;45.30;;;;;;5029410;28;20497;-48
2023/08/14 10:23:08;;;;;;;4.17;3.77;;;37.00;45.60;;;;;;5031949;28;20471;-46
2023/08/14 10:25:38;;;;;;;3.77;3.27;;;37.10;45.20;;;;;;5032131;28;20966;-47
2023/08/14 10:28:05;;;;;;;3.43;3.17;;;37.40;45.90;;;;;;5032935;28;20451;-48
2023/08/14 10:30:31;;;;;;;3.60;3.27;;;37.60;46.10;;;;;;5025173;28;20499;-45
2023/08/14 10:32:56;;;;;;;4.73;3.37;;;37.70;43.90;;;;;;5023042;28;20455;-47
2023/08/14 10:35:23;;;;;;;3.77;3.47;;;37.60;44.00;;;;;;5032289;28;20493;-49
2023/08/14 10:37:49;;;;;;;3.40;3.20;;;37.50;43.50;;;;;;5032566;28;20702;-47
2023/08/14 10:40:20;;;;;;;4.03;3.63;;;37.50;43.50;;;;;;5032345;28;20431;-48
2023/08/14 10:42:47;;;;;;;4.07;3.77;;;37.50;43.60;;;;;;5031144;28;20254;-50
2023/08/14 10:45:17;;;;;;;3.63;3.30;;;37.50;43.10;;;;;;5024864;28;20520;-51
2023/08/14 10:47:43;;;;;;;4.60;3.77;;;37.20;42.70;;;;;;5026555;28;20448;-49
2023/08/14 10:50:26;;;;;;;4.00;3.80;;;37.20;43.20;;;;;;5027118;28;20485;-52
2023/08/14 10:52:53;;;;;;;3.83;3.63;;;37.30;43.60;;;;;;5031500;28;20440;-47
2023/08/14 10:55:43;;;;;;;3.77;3.37;;;37.60;42.90;;;;;;5030648;28;20407;-51
2023/08/14 10:58:28;;;;;;;3.83;3.50;;;37.80;42.80;;;;;;5018004;28;20449;-50
2023/08/14 11:00:54;;;;;;;4.10;3.70;;;37.90;41.80;;;;;;5023604;28;20509;-48
2023/08/14 11:03:19;;;;;;;3.70;3.40;;;37.80;43.00;;;;;;5027465;28;20843;-46
2023/08/14 11:05:45;;;;;;;4.13;3.83;;;37.80;44.40;;;;;;5029018;28;20459;-50
2023/08/14 11:08:12;;;;;;;3.93;3.63;;;37.90;44.20;;;;;;5025471;28;20316;-51
2023/08/14 11:10:40;;;;;;;4.10;3.80;;;38.00;43.10;;;;;;5026291;28;20248;-51
2023/08/14 11:13:06;;;;;;;4.30;4.00;;;38.10;43.30;;;;;;5028959;28;20448;-47
2023/08/14 11:15:33;;;;;;;3.63;3.33;;;38.20;42.90;;;;;;5025386;28;20418;-48
2023/08/14 11:18:00;;;;;;;4.33;4.03;;;38.30;43.60;;;;;;5032346;28;20794;-48
2023/08/14 11:20:29;;;;;;;4.13;3.83;;;38.40;43.10;;;;;;5027918;28;20427;-50
2023/08/14 11:22:56;;;;;;;4.20;3.87;;;38.40;42.40;;;;;;5027610;28;20422;-48
2023/08/14 11:25:22;;;;;;;4.53;4.13;;;38.40;41.40;;;;;;5021423;28;20444;-50
2023/08/14 11:27:52;;;;;;;4.17;3.87;;;37.90;42.50;;;;;;5029585;28;20459;-49
2023/08/14 11:30:23;;;;;;;4.03;3.63;;;37.90;43.20;;;;;;5029844;28;20224;-50
2023/08/14 11:32:50;;;;;;;3.97;3.70;;;38.00;44.10;;;;;;5021094;28;20430;-47
2023/08/14 11:35:16;;;;;;;4.73;4.33;;;38.00;42.70;;;;;;5029970;28;20797;-49
2023/08/14 11:37:42;;;;;;;3.77;3.47;;;38.10;43.10;;;;;;5028858;28;20435;-47
2023/08/14 11:40:10;;;;;;;4.93;4.53;;;38.10;43.10;;;;;;5029686;28;20502;-47
2023/08/14 11:42:40;;;;;;;4.00;3.70;;;38.20;42.80;;;;;;5030906;28;20199;-47
2023/08/14 11:45:06;;;;;;;4.37;3.97;;;38.20;43.70;;;;;;5027022;28;20442;-46
2023/08/14 11:47:40;;;;;;;4.80;4.40;;;38.20;43.10;;;;;;5027296;28;20459;-46
2023/08/14 11:50:07;;;;;;;4.43;4.03;;;38.10;42.00;;;;;;5030831;28;20490;-47
2023/08/14 11:52:34;;;;;;;4.13;3.73;;;37.90;41.50;;;;;;5031934;28;20452;-51
2023/08/14 11:55:01;;;;;;;5.67;3.60;;;37.90;43.20;;;;;;5027654;28;20536;-48
2023/08/14 11:57:30;;;;;;;4.23;3.83;;;38.00;43.20;;;;;;5027676;28;20443;-48
2023/08/14 11:59:57;;;;;;;3.93;3.70;;;38.20;43.90;;;;;;5028936;28;20895;-49
2023/08/14 12:02:27;;;;;;;4.87;4.43;;;38.30;43.40;;;;;;5026942;28;20447;-52
2023/08/14 12:04:57;;;;;;;5.07;4.57;;;38.60;43.00;;;;;;5026318;28;20450;-49
2023/08/14 12:07:25;;;;;;;4.50;4.10;;;38.70;42.30;;;;;;5030778;28;20435;-50
2023/08/14 12:09:53;;;;;;;4.03;3.73;;;38.70;41.80;;;;;;5029820;28;20535;-47
2023/08/14 12:12:19;;;;;;;4.10;3.80;;;38.80;41.70;;;;;;5022191;28;20443;-49
2023/08/14 12:14:47;;;;;;;4.20;3.90;;;38.80;40.90;;;;;;5029353;28;20435;-49
2023/08/14 12:17:15;;;;;;;4.70;4.30;;;38.90;40.50;;;;;;5031665;28;20219;-49
2023/08/14 12:19:42;;;;;;;4.00;3.80;;;38.80;40.50;;;;;;5029586;28;20423;-51
2023/08/14 12:22:08;;;;;;;3.73;3.50;;;38.80;41.20;;;;;;5025458;28;20447;-48
2023/08/14 12:24:43;;;;;;;5.93;3.90;;;38.70;41.00;;;;;;5029669;28;20497;-47
2023/08/14 12:27:19;;;;;;;4.13;3.83;;;38.70;40.10;;;;;;5029669;28;20417;-47
2023/08/14 12:29:45;;;;;;;4.03;3.73;;;38.70;40.60;;;;;;5026602;28;20514;-48
2023/08/14 12:32:11;;;;;;;4.43;4.10;;;38.60;38.90;;;;;;5029692;28;20836;-51
2023/08/14 12:34:37;;;;;;;4.33;3.93;;;38.50;39.10;;;;;;5022602;28;20435;-47
2023/08/14 12:37:07;;;;;;;4.03;3.73;;;38.60;39.20;;;;;;5021076;28;20493;-47
2023/08/14 12:39:33;;;;;;;4.60;4.20;;;38.50;40.70;;;;;;5028094;28;20491;-47
2023/08/14 12:42:00;;;;;;;4.63;4.23;;;38.60;41.20;;;;;;5030371;28;20877;-48
2023/08/14 12:44:26;;;;;;;3.93;3.67;;;38.50;40.80;;;;;;5027755;28;20208;-47